Startpagina
METAR-TAF:

METAR-TAF

Vliegvelden :

Aeroporto di Roma Fiumicino

Rome-Fiumicino, Italië

breedte: 41-48N, lengte: 012-14E, hoogte: 2 m

Actueel weer

Dit bericht is 35 minuten geleden gemaakt, om 23:20 UTC
Wind 4 kt uit het noordoosten
Temperatuur 10°C
Vochtigheid 93%
Druk 1023 hPa
Zicht: 7000 m

METAR: LIRF 142320Z 04004KT 7000 NSC 10/09 Q1023 NOSIG

Tijdstip: 00:55 (23:55 UTC)

Verwachting

Dit bericht is 55 minuten geleden gemaakt, om 23:00 UTC
Verwachting geldig van 15 om 00 UTC tot 16 om 06 UTC
Wind 5 kt uit variabele richting
Zicht: 4000 m
Weinig wolken op 1800 ft
nevel
Tijdelijke
van 15 om 00 UTC tot 15 om 06 UTC
Zicht: 0800 m
Gebroken wolken op 800 ft
mistbanken
Wijzigt naar
van 15 om 06 UTC tot 15 om 08 UTC
Zicht: 8000 m
Wijzigt naar
van 15 om 16 UTC tot 15 om 18 UTC
Wind 10 kt uit het noordoosten

TAF: LIRF 142300Z 1500/1606 VRB05KT 4000 BR FEW018 TEMPO 1500/1506 0800 BCFG BKN008 BECMG 1506/1508 8000 BECMG 1516/1518 04010KT

Waarnemingen en weersverwachtingen van meer dan 4000 vliegvelden (METAR en TAF).

De beschikbare stations zijn de gele en rode punten op de kaart.

Ga met uw muis naar het station om de naam te zien.

Klik dan om waarnemingen en weersverwachtingen te zien.

kaart wijzigen: klik op de groene knoppen met een zwart kruis om in te zoomen, op de groene knop met een streepje om uit te zoomen of op de groene pijlen voor aangrenzende kaarten.


METAR-TAF: